Hovedside
METAR-TAF:

METAR-TAF

Lufthavner :

Moundou, Tsjad

breddegrad: 08-37N, lengdegrad: 016-04E, høyde over havet: 428 m

Gjeldene værobservasjon

Denne rapporten ble laget for 3 timer og 13 minutter siden, klokken 14:00 UTC
Vind 4 kt fra Øst
Temperatur 22°C
Luftfuktighet 94%
Trykk 1013 hPa
Sikt: 8000 m
Spredte skyer i en høyde av 3000 ft
Spredte skyer i en høyde av 5000 ft, Bygeskyer.
Overskyet i en høyde av 14000 ft
torden, lett regn,

METAR: FTTD 171400Z 08004KT 8000 TS -RA SCT030 SCT050CB OVC140 22/21 Q1013

Tid: 18:13 (17:13 UTC)


TAF: fraværende

Værobservasjoner og værvarsel for over 4000 flyplasser (METAR- og TAF-rapporter).

Tilgjengelige stasjoner er representert av de røde og gule prikkene på kartet.

Hold musepekeren over prikken for å se navnet på stasjonen.

Klikk så for å se værobservasjoner og -varsler.

For å forandre kartet kan du klikke på den grønne knappen med svart kryss for å zoome inn, på den grønne knappen med strek for å zoome ut, eller på de grønne pilene for å se tilstøtende kart.


METAR-TAF: